createdAt,value
2023-06-06T00:00:21.736Z,76.57
2023-06-06T00:02:49.517Z,76.52
2023-06-06T00:05:16.415Z,76.48
2023-06-06T00:07:45.288Z,76.79
2023-06-06T00:10:13.308Z,76.95
2023-06-06T00:12:41.774Z,77.71
2023-06-06T00:15:09.365Z,78.46
2023-06-06T00:17:37.187Z,78.18
2023-06-06T00:20:10.336Z,78.11
2023-06-06T00:22:37.734Z,78.21
2023-06-06T00:25:05.466Z,78.20
2023-06-06T00:27:33.556Z,78.54
2023-06-06T00:30:00.871Z,78.73
2023-06-06T00:32:27.854Z,79.31
2023-06-06T00:34:55.016Z,80.02
2023-06-06T00:37:22.023Z,79.72
2023-06-06T00:39:49.686Z,80.42
2023-06-06T00:42:17.496Z,80.28
2023-06-06T00:44:44.184Z,79.60
2023-06-06T00:47:11.110Z,79.38
2023-06-06T00:49:38.264Z,79.66
2023-06-06T00:52:05.313Z,80.21
2023-06-06T00:54:32.370Z,80.40
2023-06-06T00:57:00.642Z,79.99
2023-06-06T00:59:27.540Z,80.08
2023-06-06T01:01:54.528Z,79.82
2023-06-06T01:04:21.327Z,80.01
2023-06-06T01:06:49.989Z,79.98
2023-06-06T01:09:19.197Z,80.32
2023-06-06T01:12:08.028Z,80.29
2023-06-06T01:14:37.307Z,80.20
2023-06-06T01:17:04.426Z,80.31
2023-06-06T01:19:32.684Z,80.23
2023-06-06T01:21:59.579Z,80.61
2023-06-06T01:24:27.701Z,80.85
2023-06-06T01:26:55.385Z,81.17
2023-06-06T01:29:22.542Z,82.08
2023-06-06T01:32:23.165Z,82.62
2023-06-06T01:35:03.314Z,82.66
2023-06-06T01:37:32.590Z,82.37
2023-06-06T01:40:04.876Z,82.18
2023-06-06T01:42:33.599Z,82.67
2023-06-06T01:45:00.206Z,83.38
2023-06-06T01:47:29.542Z,83.47
2023-06-06T01:49:58.205Z,82.66
2023-06-06T01:52:28.653Z,81.65
2023-06-06T01:54:59.631Z,81.10
2023-06-06T01:57:26.349Z,80.67
2023-06-06T01:59:53.080Z,80.28
2023-06-06T02:02:20.000Z,80.78
2023-06-06T02:04:48.607Z,80.83
2023-06-06T02:07:17.065Z,80.93
2023-06-06T02:09:44.258Z,81.17
2023-06-06T02:12:11.841Z,80.78
2023-06-06T02:14:38.865Z,81.82
2023-06-06T02:17:05.966Z,82.25
2023-06-06T02:19:32.755Z,82.05
2023-06-06T02:22:01.306Z,82.16
2023-06-06T02:24:28.203Z,82.87
2023-06-06T02:26:55.237Z,83.51
2023-06-06T02:29:25.133Z,84.02
2023-06-06T02:31:53.656Z,83.89
2023-06-06T02:34:22.203Z,83.23
2023-06-06T02:36:49.885Z,83.32
2023-06-06T02:39:16.744Z,83.77
2023-06-06T02:41:43.477Z,83.36
2023-06-06T02:44:09.994Z,82.52
2023-06-06T02:46:37.114Z,81.81
2023-06-06T02:49:03.793Z,81.48
2023-06-06T02:51:30.983Z,81.54
2023-06-06T02:53:57.776Z,81.30
2023-06-06T02:56:24.463Z,81.25
2023-06-06T02:58:52.789Z,81.31
2023-06-06T03:01:21.549Z,81.37
2023-06-06T03:03:48.348Z,81.34
2023-06-06T03:06:19.033Z,81.37
2023-06-06T03:08:46.296Z,81.14
2023-06-06T03:11:13.553Z,80.98
2023-06-06T03:13:40.610Z,80.63
2023-06-06T03:16:07.326Z,80.39
2023-06-06T03:18:37.040Z,80.24
2023-06-06T03:21:08.426Z,79.93
2023-06-06T03:23:41.649Z,79.57
2023-06-06T03:26:08.508Z,79.09
2023-06-06T03:28:35.920Z,78.99
2023-06-06T03:31:07.078Z,78.72
2023-06-06T03:33:38.917Z,78.76
2023-06-06T03:36:07.989Z,78.85
2023-06-06T03:38:34.894Z,79.01
2023-06-06T03:41:03.194Z,79.13
2023-06-06T03:43:30.699Z,79.23
2023-06-06T03:45:58.326Z,79.75
2023-06-06T03:48:25.198Z,79.78
2023-06-06T03:50:51.815Z,80.23
2023-06-06T03:53:20.426Z,80.82
2023-06-06T03:55:47.274Z,80.69
2023-06-06T03:58:18.923Z,80.60
2023-06-06T04:00:45.998Z,80.04
2023-06-06T04:03:12.872Z,79.32
2023-06-06T04:05:40.111Z,79.00
2023-06-06T04:08:08.522Z,79.04
2023-06-06T04:10:35.587Z,79.29
2023-06-06T04:13:02.907Z,78.87
2023-06-06T04:15:29.708Z,77.78
2023-06-06T04:17:56.486Z,77.29
2023-06-06T04:20:23.393Z,76.47
2023-06-06T04:22:50.361Z,75.29
2023-06-06T04:25:19.044Z,74.15
2023-06-06T04:27:48.689Z,73.01
2023-06-06T04:30:22.926Z,72.45
2023-06-06T04:32:51.714Z,71.93
2023-06-06T04:35:19.235Z,71.79
2023-06-06T04:37:48.321Z,71.56
2023-06-06T04:40:16.700Z,71.85
2023-06-06T04:42:46.183Z,71.77
2023-06-06T04:45:13.662Z,72.12
2023-06-06T04:47:41.058Z,71.81
2023-06-06T04:50:08.937Z,71.51
2023-06-06T04:52:36.752Z,70.78
2023-06-06T04:55:04.329Z,68.78
2023-06-06T04:57:33.505Z,67.54
2023-06-06T05:00:01.600Z,66.84
2023-06-06T05:02:30.108Z,66.84
2023-06-06T05:04:58.353Z,66.70
2023-06-06T05:07:25.763Z,66.02
2023-06-06T05:09:53.123Z,64.92
2023-06-06T05:12:24.867Z,63.66
2023-06-06T05:14:51.669Z,62.47
2023-06-06T05:17:20.854Z,61.03
2023-06-06T05:19:47.585Z,59.93
2023-06-06T05:22:15.149Z,59.95
2023-06-06T05:24:42.405Z,59.77
2023-06-06T05:27:09.047Z,59.64
2023-06-06T05:29:35.915Z,59.56
2023-06-06T05:32:02.896Z,59.29
2023-06-06T05:34:29.687Z,59.36
2023-06-06T05:36:56.320Z,59.00
2023-06-06T05:39:24.793Z,58.66
2023-06-06T05:41:55.154Z,57.43
2023-06-06T05:44:23.229Z,55.47
2023-06-06T05:46:55.462Z,53.51
2023-06-06T05:49:23.442Z,51.12
2023-06-06T05:51:50.512Z,49.61
2023-06-06T05:54:17.741Z,48.81
2023-06-06T05:56:44.907Z,48.15
2023-06-06T05:59:13.878Z,47.70
2023-06-06T06:01:41.850Z,45.34
2023-06-06T06:04:08.719Z,44.55
2023-06-06T06:06:37.766Z,44.13
2023-06-06T06:09:04.404Z,41.71
2023-06-06T06:11:31.363Z,41.90
2023-06-06T06:13:59.072Z,40.94
2023-06-06T06:16:25.974Z,39.02
2023-06-06T06:18:53.049Z,38.79
2023-06-06T06:21:20.485Z,38.46
2023-06-06T06:23:48.437Z,38.48
2023-06-06T06:26:16.168Z,37.72
2023-06-06T06:28:42.925Z,38.30
2023-06-06T06:31:09.881Z,38.83
2023-06-06T06:33:37.068Z,37.78
2023-06-06T06:36:04.540Z,36.31
2023-06-06T06:38:32.131Z,35.15
2023-06-06T06:40:58.942Z,34.43
2023-06-06T06:43:25.629Z,35.35
2023-06-06T06:45:55.844Z,35.26
2023-06-06T06:48:22.814Z,35.56
2023-06-06T06:50:49.829Z,34.95
2023-06-06T06:53:16.648Z,34.35
2023-06-06T06:55:44.819Z,32.95
2023-06-06T06:58:13.784Z,32.84
2023-06-06T07:00:41.379Z,34.41
2023-06-06T07:03:09.185Z,34.60
2023-06-06T07:05:38.017Z,34.97
2023-06-06T07:08:06.122Z,34.40
2023-06-06T07:10:34.562Z,33.10
2023-06-06T07:13:01.185Z,33.45
2023-06-06T07:15:29.553Z,31.71
2023-06-06T07:17:56.423Z,30.52
2023-06-06T07:20:24.296Z,30.86
2023-06-06T07:22:53.998Z,30.21
2023-06-06T07:25:21.780Z,30.41
2023-06-06T07:27:48.546Z,30.61
2023-06-06T07:30:15.323Z,30.73
2023-06-06T07:32:43.752Z,30.64
2023-06-06T07:35:17.575Z,30.37
2023-06-06T07:37:44.294Z,29.95
2023-06-06T07:40:15.411Z,28.37
2023-06-06T07:42:42.947Z,28.53
2023-06-06T07:45:10.198Z,29.21
2023-06-06T07:47:36.893Z,27.19
2023-06-06T07:50:03.978Z,27.83
2023-06-06T07:52:34.056Z,28.86
2023-06-06T07:55:01.765Z,28.34
2023-06-06T07:57:32.013Z,28.94
2023-06-06T07:59:59.205Z,28.18
2023-06-06T08:02:27.881Z,28.41
2023-06-06T08:04:54.938Z,27.81
2023-06-06T08:07:21.826Z,27.83
2023-06-06T08:09:48.695Z,28.37
2023-06-06T08:12:15.584Z,27.98
2023-06-06T08:14:43.317Z,28.44
2023-06-06T08:17:10.160Z,28.37
2023-06-06T08:19:36.876Z,29.19
2023-06-06T08:22:03.877Z,28.80
2023-06-06T08:24:30.738Z,27.49
2023-06-06T08:26:58.022Z,27.75
2023-06-06T08:29:24.836Z,28.48
2023-06-06T08:31:52.977Z,28.28
2023-06-06T08:34:19.533Z,28.34
2023-06-06T08:36:46.837Z,28.38
2023-06-06T08:39:14.376Z,29.33
2023-06-06T08:41:44.894Z,28.95
2023-06-06T08:44:11.547Z,29.65
2023-06-06T08:46:38.197Z,31.26
2023-06-06T08:49:05.570Z,30.19
2023-06-06T08:51:32.568Z,29.37
2023-06-06T08:54:01.082Z,29.16
2023-06-06T08:56:28.206Z,29.79
2023-06-06T08:58:55.039Z,30.11
2023-06-06T09:01:22.644Z,29.84
2023-06-06T09:03:53.630Z,29.99
2023-06-06T09:06:21.183Z,30.25
2023-06-06T09:08:48.975Z,30.62
2023-06-06T09:11:16.517Z,31.06
2023-06-06T09:13:43.290Z,30.27
2023-06-06T09:16:10.498Z,30.83
2023-06-06T09:18:38.711Z,31.86
2023-06-06T09:21:06.003Z,33.23
2023-06-06T09:23:32.860Z,32.91
2023-06-06T09:26:00.270Z,32.39
2023-06-06T09:28:39.556Z,31.83
2023-06-06T09:31:30.541Z,31.56
2023-06-06T09:33:58.035Z,31.28
2023-06-06T09:36:30.050Z,31.56
2023-06-06T09:39:02.893Z,31.66
2023-06-06T09:41:30.536Z,31.64
2023-06-06T09:43:57.115Z,31.47
2023-06-06T09:46:24.261Z,30.87
2023-06-06T09:48:59.454Z,30.67
2023-06-06T09:51:26.726Z,30.33
2023-06-06T09:53:53.418Z,28.70
2023-06-06T09:56:24.744Z,30.28
2023-06-06T09:58:55.027Z,29.77
2023-06-06T10:01:26.373Z,29.92
2023-06-06T10:03:55.800Z,29.36
2023-06-06T10:06:33.883Z,29.99
2023-06-06T10:09:05.767Z,30.49
2023-06-06T10:11:33.542Z,31.21
2023-06-06T10:14:00.520Z,31.15
2023-06-06T10:16:31.912Z,30.35
2023-06-06T10:18:58.479Z,29.12
2023-06-06T10:21:25.536Z,29.01
2023-06-06T10:23:53.554Z,28.58
2023-06-06T10:26:26.842Z,28.88
2023-06-06T10:29:26.315Z,28.44
2023-06-06T10:31:56.777Z,27.62
2023-06-06T10:34:29.461Z,26.39
2023-06-06T10:36:57.756Z,26.78
2023-06-06T10:39:25.689Z,25.82
2023-06-06T10:41:57.364Z,25.96
2023-06-06T10:44:32.530Z,25.86
2023-06-06T10:47:21.031Z,26.12
2023-06-06T10:50:12.192Z,27.62
2023-06-06T10:52:52.034Z,28.66
2023-06-06T10:55:21.489Z,29.42
2023-06-06T10:58:03.126Z,30.06
2023-06-06T11:00:34.418Z,29.77
2023-06-06T11:03:05.403Z,29.29
2023-06-06T11:05:32.698Z,29.86
2023-06-06T11:08:02.321Z,28.59
2023-06-06T11:10:34.742Z,27.44
2023-06-06T11:13:01.449Z,27.48
2023-06-06T11:15:32.374Z,27.78
2023-06-06T11:18:04.118Z,28.12
2023-06-06T11:20:40.704Z,28.97
2023-06-06T11:23:08.719Z,29.56
2023-06-06T11:25:38.214Z,30.51
2023-06-06T11:28:05.649Z,31.46
2023-06-06T11:30:33.049Z,30.07
2023-06-06T11:33:00.876Z,29.63
2023-06-06T11:35:32.971Z,29.13
2023-06-06T11:37:59.915Z,28.39
2023-06-06T11:40:27.407Z,29.21
2023-06-06T11:42:54.048Z,28.12
2023-06-06T11:45:20.853Z,28.43
2023-06-06T11:47:47.772Z,28.28
2023-06-06T11:50:14.350Z,27.77
2023-06-06T11:52:48.085Z,27.92
2023-06-06T11:55:15.830Z,28.08
2023-06-06T11:57:42.884Z,28.04
2023-06-06T12:00:15.759Z,28.79
2023-06-06T12:02:47.835Z,27.23
2023-06-06T12:05:27.347Z,27.44
2023-06-06T12:08:01.470Z,27.56
2023-06-06T12:10:29.581Z,28.12
2023-06-06T12:12:56.530Z,28.79
2023-06-06T12:15:28.096Z,30.42
2023-06-06T12:18:02.024Z,32.50
2023-06-06T12:20:28.916Z,32.16
2023-06-06T12:22:55.485Z,30.31
2023-06-06T12:25:28.299Z,30.28
2023-06-06T12:27:56.511Z,29.02
2023-06-06T12:30:31.628Z,28.21
2023-06-06T12:32:58.946Z,28.09
2023-06-06T12:35:27.247Z,27.83
2023-06-06T12:37:53.810Z,26.68
2023-06-06T12:40:20.681Z,27.26
2023-06-06T12:42:54.353Z,27.58
2023-06-06T12:45:21.345Z,28.72
2023-06-06T12:48:03.369Z,29.59
2023-06-06T12:50:30.269Z,30.08
2023-06-06T12:52:56.836Z,29.52
2023-06-06T12:55:24.209Z,29.08
2023-06-06T12:57:51.556Z,28.45
2023-06-06T13:00:19.887Z,28.42
2023-06-06T13:02:47.271Z,28.53
2023-06-06T13:05:14.367Z,28.56
2023-06-06T13:07:41.213Z,28.13
2023-06-06T13:10:09.386Z,27.49
2023-06-06T13:12:41.538Z,26.56
2023-06-06T13:15:10.224Z,26.70
2023-06-06T13:17:38.265Z,26.87
2023-06-06T13:20:06.896Z,26.02
2023-06-06T13:22:36.750Z,26.01
2023-06-06T13:25:04.055Z,26.44
2023-06-06T13:27:31.197Z,25.47
2023-06-06T13:30:01.350Z,25.39
2023-06-06T13:32:28.093Z,25.89
2023-06-06T13:34:54.835Z,26.35
2023-06-06T13:37:22.212Z,26.64
2023-06-06T13:39:49.233Z,26.46
2023-06-06T13:42:15.920Z,26.41
2023-06-06T13:44:42.635Z,25.78
2023-06-06T13:47:09.275Z,25.97
2023-06-06T13:49:36.295Z,25.59
2023-06-06T13:52:03.712Z,24.33
2023-06-06T13:54:30.450Z,23.88
2023-06-06T13:57:00.775Z,24.21
2023-06-06T13:59:27.809Z,25.65
2023-06-06T14:01:54.424Z,25.93
2023-06-06T14:04:22.279Z,26.17
2023-06-06T14:06:51.333Z,26.59
2023-06-06T14:09:19.294Z,26.77
2023-06-06T14:11:47.248Z,25.90
2023-06-06T14:14:15.640Z,27.07
2023-06-06T14:16:42.604Z,27.26
2023-06-06T14:19:25.199Z,27.33
2023-06-06T14:22:10.599Z,27.25
2023-06-06T14:24:37.728Z,27.87
2023-06-06T14:27:05.118Z,28.81
2023-06-06T14:29:31.947Z,28.68
2023-06-06T14:31:58.570Z,28.81
2023-06-06T14:34:25.123Z,28.80
2023-06-06T14:36:51.711Z,28.28
2023-06-06T14:39:18.453Z,29.53
2023-06-06T14:41:45.219Z,29.80
2023-06-06T14:44:13.044Z,30.32
2023-06-06T14:46:40.744Z,29.88
2023-06-06T14:49:07.733Z,30.21
2023-06-06T14:51:34.472Z,30.41
2023-06-06T14:54:01.681Z,30.06
2023-06-06T14:56:31.277Z,29.66
2023-06-06T14:58:58.262Z,29.42
2023-06-06T15:01:25.647Z,29.70
2023-06-06T15:03:53.187Z,29.67
2023-06-06T15:06:20.682Z,30.33
2023-06-06T15:08:47.579Z,29.92
2023-06-06T15:11:14.904Z,30.73
2023-06-06T15:13:41.552Z,30.44
2023-06-06T15:16:11.289Z,30.53
2023-06-06T15:18:38.446Z,30.66
2023-06-06T15:21:05.147Z,30.50
2023-06-06T15:23:31.898Z,30.66
2023-06-06T15:25:58.552Z,31.03
2023-06-06T15:28:25.341Z,31.57
2023-06-06T15:30:55.726Z,31.68
2023-06-06T15:33:23.165Z,31.95
2023-06-06T15:35:50.562Z,32.23
2023-06-06T15:38:18.114Z,32.66
2023-06-06T15:40:46.995Z,32.62
2023-06-06T15:43:14.286Z,32.69
2023-06-06T15:45:43.013Z,33.20
2023-06-06T15:48:09.935Z,33.15
2023-06-06T15:50:36.890Z,33.38
2023-06-06T15:53:03.939Z,32.71
2023-06-06T15:55:31.411Z,33.00
2023-06-06T15:57:58.074Z,32.48
2023-06-06T16:00:26.141Z,32.32
2023-06-06T16:02:53.540Z,32.60
2023-06-06T16:05:20.897Z,32.98
2023-06-06T16:07:47.925Z,32.96
2023-06-06T16:10:14.933Z,32.48
2023-06-06T16:12:41.754Z,32.64
2023-06-06T16:15:10.255Z,32.76
2023-06-06T16:17:36.898Z,32.57
2023-06-06T16:20:04.022Z,32.60
2023-06-06T16:22:31.882Z,32.46
2023-06-06T16:24:59.131Z,32.33
2023-06-06T16:27:26.158Z,32.18
2023-06-06T16:29:53.049Z,32.30
2023-06-06T16:32:20.070Z,32.62
2023-06-06T16:34:46.833Z,32.81
2023-06-06T16:37:13.762Z,32.66
2023-06-06T16:39:41.640Z,32.56
2023-06-06T16:42:09.217Z,32.91
2023-06-06T16:44:37.312Z,33.10
2023-06-06T16:47:04.414Z,33.24
2023-06-06T16:49:31.111Z,33.19
2023-06-06T16:51:57.929Z,33.46
2023-06-06T16:54:24.527Z,34.35
2023-06-06T16:56:51.675Z,34.66
2023-06-06T16:59:18.283Z,34.77
2023-06-06T17:01:45.250Z,34.78
2023-06-06T17:04:14.764Z,35.26
2023-06-06T17:06:41.388Z,35.84
2023-06-06T17:09:08.850Z,36.43
2023-06-06T17:11:35.406Z,36.84
2023-06-06T17:14:02.555Z,37.59
2023-06-06T17:16:29.540Z,38.07
2023-06-06T17:18:56.548Z,38.67
2023-06-06T17:21:23.091Z,38.81
2023-06-06T17:23:51.497Z,39.26
2023-06-06T17:26:18.278Z,39.54
2023-06-06T17:28:45.118Z,40.05
2023-06-06T17:31:13.426Z,40.68
2023-06-06T17:33:40.691Z,41.18
2023-06-06T17:36:07.343Z,41.50
2023-06-06T17:38:35.096Z,41.92
2023-06-06T17:41:01.950Z,42.68
2023-06-06T17:43:28.937Z,43.25
2023-06-06T17:45:55.864Z,43.67
2023-06-06T17:48:23.186Z,44.07
2023-06-06T17:50:50.215Z,44.47
2023-06-06T17:53:17.094Z,44.72
2023-06-06T17:55:43.826Z,44.74
2023-06-06T17:58:10.406Z,44.95
2023-06-06T18:00:37.529Z,44.88
2023-06-06T18:03:04.253Z,45.03
2023-06-06T18:05:35.335Z,45.56
2023-06-06T18:08:03.128Z,46.05
2023-06-06T18:10:30.344Z,46.60
2023-06-06T18:12:57.073Z,47.46
2023-06-06T18:15:23.882Z,47.78
2023-06-06T18:17:51.268Z,48.17
2023-06-06T18:20:17.995Z,48.75
2023-06-06T18:22:44.659Z,48.88
2023-06-06T18:25:15.030Z,49.49
2023-06-06T18:27:41.661Z,49.83
2023-06-06T18:30:08.648Z,50.39
2023-06-06T18:32:36.214Z,50.70
2023-06-06T18:35:05.529Z,50.51
2023-06-06T18:37:32.528Z,51.41
2023-06-06T18:39:59.349Z,52.10
2023-06-06T18:42:26.294Z,52.60
2023-06-06T18:44:53.011Z,53.28
2023-06-06T18:47:19.626Z,54.02
2023-06-06T18:49:46.341Z,54.45
2023-06-06T18:52:13.110Z,54.86
2023-06-06T18:54:39.775Z,55.59
2023-06-06T18:57:09.513Z,56.01
2023-06-06T18:59:37.833Z,55.66
2023-06-06T19:02:06.257Z,55.52
2023-06-06T19:04:33.244Z,55.83
2023-06-06T19:07:00.035Z,56.53
2023-06-06T19:09:26.839Z,56.42
2023-06-06T19:11:53.386Z,56.64
2023-06-06T19:14:20.444Z,56.99
2023-06-06T19:16:47.086Z,57.15
2023-06-06T19:19:13.971Z,57.35
2023-06-06T19:21:40.589Z,57.28
2023-06-06T19:24:07.333Z,57.63
2023-06-06T19:26:34.184Z,57.61
2023-06-06T19:29:00.865Z,58.21
2023-06-06T19:31:28.071Z,58.80
2023-06-06T19:33:54.693Z,59.32
2023-06-06T19:36:23.286Z,59.88
2023-06-06T19:38:51.274Z,60.00
2023-06-06T19:41:18.000Z,60.05
2023-06-06T19:43:47.122Z,60.45
2023-06-06T19:46:15.362Z,60.63
2023-06-06T19:48:43.488Z,60.60
2023-06-06T19:51:10.085Z,61.01
2023-06-06T19:53:37.237Z,60.75
2023-06-06T19:56:03.995Z,60.99
2023-06-06T19:58:30.946Z,61.53
2023-06-06T20:01:00.280Z,62.00
2023-06-06T20:03:27.827Z,62.76
2023-06-06T20:05:55.964Z,62.89
2023-06-06T20:08:24.329Z,62.95
2023-06-06T20:10:51.161Z,63.08
2023-06-06T20:13:19.922Z,63.79
2023-06-06T20:15:46.539Z,63.84
2023-06-06T20:18:13.536Z,64.16
2023-06-06T20:20:41.997Z,64.21
2023-06-06T20:23:09.452Z,64.08
2023-06-06T20:25:41.671Z,64.24
2023-06-06T20:28:08.485Z,64.27
2023-06-06T20:30:36.867Z,65.29
2023-06-06T20:33:05.017Z,65.76
2023-06-06T20:35:31.738Z,65.36
2023-06-06T20:37:58.322Z,65.29
2023-06-06T20:40:25.252Z,65.34
2023-06-06T20:42:52.002Z,65.72
2023-06-06T20:45:18.705Z,65.91
2023-06-06T20:47:46.126Z,66.37
2023-06-06T20:50:12.809Z,67.63
2023-06-06T20:52:40.797Z,67.90
2023-06-06T20:55:11.393Z,68.29
2023-06-06T20:57:39.489Z,68.14
2023-06-06T21:00:06.964Z,67.87
2023-06-06T21:02:34.226Z,68.14
2023-06-06T21:05:01.040Z,68.12
2023-06-06T21:07:28.133Z,67.89
2023-06-06T21:09:58.467Z,67.84
2023-06-06T21:12:25.913Z,68.34
2023-06-06T21:14:52.547Z,68.28
2023-06-06T21:17:20.758Z,68.57
2023-06-06T21:19:48.641Z,68.81
2023-06-06T21:22:15.530Z,68.93
2023-06-06T21:24:42.393Z,68.64
2023-06-06T21:27:09.156Z,68.73
2023-06-06T21:29:35.945Z,68.53
2023-06-06T21:32:02.707Z,69.03
2023-06-06T21:34:29.441Z,69.07
2023-06-06T21:36:56.192Z,69.32
2023-06-06T21:39:22.761Z,69.44
2023-06-06T21:41:49.294Z,70.50
2023-06-06T21:44:15.795Z,70.06
2023-06-06T21:46:42.404Z,69.63
2023-06-06T21:49:09.103Z,69.48
2023-06-06T21:51:36.976Z,69.99
2023-06-06T21:54:03.753Z,69.99
2023-06-06T21:56:30.402Z,70.05
2023-06-06T21:58:57.892Z,70.01
2023-06-06T22:01:24.546Z,70.31
2023-06-06T22:03:51.489Z,69.94
2023-06-06T22:06:18.304Z,70.06
2023-06-06T22:08:47.880Z,70.41
2023-06-06T22:11:14.525Z,70.35
2023-06-06T22:13:41.126Z,70.98
2023-06-06T22:16:07.970Z,71.43
2023-06-06T22:18:34.792Z,71.41
2023-06-06T22:21:01.537Z,71.47
2023-06-06T22:23:28.524Z,72.22
2023-06-06T22:26:10.351Z,72.60
2023-06-06T22:28:38.753Z,72.22
2023-06-06T22:31:05.328Z,72.07
2023-06-06T22:33:32.678Z,72.05
2023-06-06T22:36:19.639Z,71.83
2023-06-06T22:38:47.043Z,71.93
2023-06-06T22:41:13.656Z,72.49
2023-06-06T22:43:40.202Z,72.55
2023-06-06T22:46:08.320Z,72.46
2023-06-06T22:48:35.061Z,73.05
2023-06-06T22:51:02.630Z,73.51
2023-06-06T22:53:30.249Z,73.85
2023-06-06T22:55:56.973Z,74.04
2023-06-06T22:58:23.504Z,74.34
2023-06-06T23:00:50.023Z,74.47
2023-06-06T23:03:17.021Z,74.05
2023-06-06T23:05:45.041Z,73.76
2023-06-06T23:08:11.566Z,74.25
2023-06-06T23:10:38.073Z,74.30
2023-06-06T23:13:04.717Z,74.56
2023-06-06T23:15:31.490Z,74.97
2023-06-06T23:17:58.376Z,74.68
2023-06-06T23:20:25.168Z,74.46
2023-06-06T23:22:52.318Z,74.27
2023-06-06T23:25:19.103Z,74.36
2023-06-06T23:27:45.639Z,74.41
2023-06-06T23:30:13.849Z,74.36
2023-06-06T23:32:40.902Z,74.35
2023-06-06T23:35:08.652Z,74.76
2023-06-06T23:37:35.650Z,75.11
2023-06-06T23:40:03.534Z,75.11
2023-06-06T23:42:30.618Z,75.15
2023-06-06T23:44:57.321Z,74.96
2023-06-06T23:47:25.281Z,75.09
2023-06-06T23:49:51.963Z,75.09
2023-06-06T23:52:18.762Z,75.09
2023-06-06T23:54:45.591Z,74.96
2023-06-06T23:57:13.171Z,74.87
2023-06-06T23:59:39.678Z,74.90
